createdAt,value
2022-09-10T00:01:09.276Z,12.20
2022-09-10T00:03:54.889Z,12.30
2022-09-10T00:06:40.953Z,12.30
2022-09-10T00:09:26.116Z,12.30
2022-09-10T00:12:11.206Z,12.30
2022-09-10T00:14:56.437Z,12.20
2022-09-10T00:17:41.476Z,12.20
2022-09-10T00:20:27.246Z,12.20
2022-09-10T00:23:12.809Z,12.20
2022-09-10T00:25:58.019Z,12.20
2022-09-10T00:28:43.321Z,12.20
2022-09-10T00:31:30.254Z,12.20
2022-09-10T00:34:15.927Z,12.10
2022-09-10T00:37:01.424Z,12.10
2022-09-10T00:39:47.253Z,12.10
2022-09-10T00:42:32.614Z,12.10
2022-09-10T00:45:21.852Z,12.10
2022-09-10T00:48:11.594Z,12.10
2022-09-10T00:51:00.346Z,12.10
2022-09-10T00:53:45.777Z,12.10
2022-09-10T00:56:32.313Z,12.10
2022-09-10T00:59:18.862Z,12.10
2022-09-10T01:02:04.950Z,12.10
2022-09-10T01:04:50.681Z,12.10
2022-09-10T01:07:36.204Z,12.00
2022-09-10T01:10:24.717Z,12.00
2022-09-10T01:13:29.010Z,12.10
2022-09-10T01:16:30.478Z,12.00
2022-09-10T01:19:34.733Z,12.00
2022-09-10T01:22:25.719Z,12.00
2022-09-10T01:25:20.725Z,12.00
2022-09-10T01:28:15.209Z,12.00
2022-09-10T01:31:04.606Z,12.00
2022-09-10T01:33:57.204Z,12.00
2022-09-10T01:36:45.629Z,12.00
2022-09-10T01:39:30.882Z,12.00
2022-09-10T01:42:15.997Z,12.00
2022-09-10T01:45:01.271Z,12.00
2022-09-10T01:48:19.340Z,12.00
2022-09-10T01:51:10.512Z,11.90
2022-09-10T01:54:11.150Z,12.00
2022-09-10T01:56:56.206Z,11.90
2022-09-10T01:59:44.284Z,11.90
2022-09-10T02:02:47.159Z,11.90
2022-09-10T02:05:35.328Z,11.90
2022-09-10T02:08:31.175Z,12.00
2022-09-10T02:11:16.594Z,12.00
2022-09-10T02:14:01.940Z,12.00
2022-09-10T02:17:00.061Z,12.00
2022-09-10T02:19:45.947Z,12.00
2022-09-10T02:22:33.145Z,12.00
2022-09-10T02:25:18.427Z,11.90
2022-09-10T02:28:04.678Z,12.00
2022-09-10T02:30:49.983Z,12.00
2022-09-10T02:33:35.974Z,12.00
2022-09-10T02:36:21.291Z,12.00
2022-09-10T02:39:08.033Z,11.90
2022-09-10T02:41:53.682Z,12.00
2022-09-10T02:44:38.770Z,12.00
2022-09-10T02:47:23.843Z,11.90
2022-09-10T02:50:09.055Z,12.00
2022-09-10T02:52:54.077Z,12.00
2022-09-10T02:55:39.156Z,12.00
2022-09-10T02:58:24.367Z,12.00
2022-09-10T03:01:10.589Z,12.00
2022-09-10T03:03:56.744Z,11.90
2022-09-10T03:06:43.343Z,12.00
2022-09-10T03:09:28.975Z,11.90
2022-09-10T03:12:16.286Z,12.00
2022-09-10T03:15:01.761Z,11.90
2022-09-10T03:17:48.372Z,12.00
2022-09-10T03:20:33.954Z,11.90
2022-09-10T03:23:19.166Z,12.00
2022-09-10T03:26:04.534Z,11.90
2022-09-10T03:28:50.178Z,12.00
2022-09-10T03:31:36.533Z,12.00
2022-09-10T03:34:22.184Z,12.00
2022-09-10T03:37:07.308Z,12.00
2022-09-10T03:39:52.554Z,11.90
2022-09-10T03:42:38.749Z,12.00
2022-09-10T03:45:23.963Z,12.00
2022-09-10T03:48:09.709Z,11.90
2022-09-10T03:50:56.368Z,12.00
2022-09-10T03:53:42.274Z,11.90
2022-09-10T03:56:34.398Z,11.90
2022-09-10T03:59:19.821Z,11.90
2022-09-10T04:02:04.857Z,11.90
2022-09-10T04:04:50.575Z,12.00
2022-09-10T04:07:36.785Z,11.90
2022-09-10T04:10:22.242Z,12.00
2022-09-10T04:13:07.449Z,12.00
2022-09-10T04:15:53.311Z,12.00
2022-09-10T04:18:38.777Z,12.00
2022-09-10T04:21:24.630Z,12.00
2022-09-10T04:24:11.783Z,12.00
2022-09-10T04:26:57.706Z,12.00
2022-09-10T04:29:43.137Z,12.00
2022-09-10T04:32:28.587Z,12.00
2022-09-10T04:35:15.444Z,12.00
2022-09-10T04:38:00.631Z,12.00
2022-09-10T04:40:47.638Z,12.00
2022-09-10T04:43:32.854Z,12.00
2022-09-10T04:46:17.982Z,12.00
2022-09-10T04:49:03.407Z,12.00
2022-09-10T04:51:48.966Z,12.00
2022-09-10T04:54:34.347Z,12.00
2022-09-10T04:57:19.425Z,12.00
2022-09-10T05:00:07.559Z,12.00
2022-09-10T05:02:52.605Z,12.00
2022-09-10T05:05:37.990Z,12.00
2022-09-10T05:08:23.491Z,12.00
2022-09-10T05:11:08.890Z,12.00
2022-09-10T05:13:54.324Z,12.00
2022-09-10T05:16:39.695Z,12.10
2022-09-10T05:19:24.966Z,12.10
2022-09-10T05:22:10.185Z,12.10
2022-09-10T05:24:55.366Z,12.10
2022-09-10T05:27:41.768Z,12.10
2022-09-10T05:30:28.231Z,12.10
2022-09-10T05:33:13.162Z,12.10
2022-09-10T05:35:58.329Z,12.10
2022-09-10T05:38:43.525Z,12.20
2022-09-10T05:41:31.119Z,12.10
2022-09-10T05:44:17.574Z,12.20
2022-09-10T05:47:02.831Z,12.10
2022-09-10T05:49:49.283Z,12.20
2022-09-10T05:52:34.715Z,12.20
2022-09-10T05:55:19.668Z,12.10
2022-09-10T05:58:04.735Z,12.20
2022-09-10T06:00:50.594Z,12.20
2022-09-10T06:03:35.977Z,12.20
2022-09-10T06:06:21.256Z,12.20
2022-09-10T06:09:06.856Z,12.20
2022-09-10T06:11:52.035Z,12.20
2022-09-10T06:14:37.068Z,12.20
2022-09-10T06:17:22.108Z,12.30
2022-09-10T06:20:07.775Z,12.30
2022-09-10T06:22:52.902Z,12.30
2022-09-10T06:25:37.950Z,12.30
2022-09-10T06:28:23.054Z,12.30
2022-09-10T06:31:08.436Z,12.40
2022-09-10T06:33:54.106Z,12.40
2022-09-10T06:36:41.484Z,12.40
2022-09-10T06:39:28.879Z,12.40
2022-09-10T06:42:14.215Z,12.40
2022-09-10T06:45:00.281Z,12.40
2022-09-10T06:48:34.729Z,12.40
2022-09-10T06:50:57.811Z,12.40
2022-09-10T06:53:43.845Z,12.50
2022-09-10T06:56:29.040Z,12.50
2022-09-10T06:59:14.777Z,12.50
2022-09-10T07:02:00.574Z,12.50
2022-09-10T07:04:45.998Z,12.50
2022-09-10T07:07:31.384Z,12.60
2022-09-10T07:10:16.706Z,12.70
2022-09-10T07:13:01.894Z,12.60
2022-09-10T07:15:47.299Z,12.60
2022-09-10T07:18:33.516Z,12.60
2022-09-10T07:21:19.575Z,12.60
2022-09-10T07:24:05.928Z,12.70
2022-09-10T07:26:52.715Z,12.70
2022-09-10T07:29:38.993Z,12.70
2022-09-10T07:32:24.655Z,12.80
2022-09-10T07:35:13.054Z,12.80
2022-09-10T07:38:00.204Z,12.90
2022-09-10T07:40:45.472Z,13.00
2022-09-10T07:43:32.224Z,13.00
2022-09-10T07:46:23.756Z,13.10
2022-09-10T07:49:09.360Z,13.20
2022-09-10T07:51:59.708Z,13.90
2022-09-10T07:54:45.164Z,13.20
2022-09-10T07:57:31.549Z,13.10
2022-09-10T08:00:18.466Z,13.10
2022-09-10T08:03:04.137Z,13.20
2022-09-10T08:05:50.414Z,13.30
2022-09-10T08:08:37.200Z,13.40
2022-09-10T08:11:22.558Z,13.40
2022-09-10T08:14:08.088Z,13.40
2022-09-10T08:16:53.618Z,13.30
2022-09-10T08:19:39.517Z,13.30
2022-09-10T08:22:25.265Z,13.30
2022-09-10T08:25:10.368Z,13.30
2022-09-10T08:27:56.700Z,13.30
2022-09-10T08:30:42.222Z,13.30
2022-09-10T08:33:28.419Z,13.30
2022-09-10T08:36:14.931Z,13.30
2022-09-10T08:39:03.037Z,13.40
2022-09-10T08:41:56.791Z,13.40
2022-09-10T08:44:50.001Z,13.30
2022-09-10T08:47:43.904Z,13.40
2022-09-10T08:50:44.811Z,13.30
2022-09-10T08:53:36.059Z,13.30
2022-09-10T08:56:22.816Z,13.30
2022-09-10T08:59:26.678Z,13.30
2022-09-10T09:02:22.420Z,13.30
2022-09-10T09:05:22.796Z,13.40
2022-09-10T09:08:11.636Z,13.40
2022-09-10T09:10:56.961Z,13.40
2022-09-10T09:13:59.608Z,13.40
2022-09-10T09:17:08.739Z,13.50
2022-09-10T09:20:02.463Z,13.40
2022-09-10T09:22:57.576Z,13.50
2022-09-10T09:25:50.836Z,13.40
2022-09-10T09:28:39.285Z,13.40
2022-09-10T09:31:34.715Z,13.40
2022-09-10T09:34:29.647Z,13.50
2022-09-10T09:37:18.943Z,13.60
2022-09-10T09:40:23.211Z,13.60
2022-09-10T09:43:11.290Z,13.60
2022-09-10T09:45:57.061Z,13.60
2022-09-10T09:48:43.099Z,13.70
2022-09-10T09:51:35.246Z,13.60
2022-09-10T09:57:31.710Z,13.50
2022-09-10T10:00:36.166Z,13.50
2022-09-10T10:03:25.524Z,13.50
2022-09-10T10:06:11.479Z,13.40
2022-09-10T10:08:57.113Z,14.40
2022-09-10T10:11:45.202Z,13.40
2022-09-10T10:14:30.200Z,13.40
2022-09-10T10:17:24.495Z,13.50
2022-09-10T10:20:14.012Z,13.50
2022-09-10T10:23:00.702Z,13.50
2022-09-10T10:25:49.577Z,13.50
2022-09-10T10:28:36.149Z,13.50
2022-09-10T10:31:21.824Z,15.40
2022-09-10T10:34:27.991Z,13.60
2022-09-10T10:37:22.093Z,13.70
2022-09-10T10:40:33.627Z,13.60
2022-09-10T10:43:28.468Z,13.70
2022-09-10T10:46:20.923Z,13.70
2022-09-10T10:49:25.902Z,13.60
2022-09-10T10:52:37.273Z,13.70
2022-09-10T10:55:24.933Z,13.70
2022-09-10T10:58:19.413Z,13.80
2022-09-10T11:01:15.466Z,13.90
2022-09-10T11:04:01.052Z,13.90
2022-09-10T11:06:49.689Z,13.90
2022-09-10T11:09:47.826Z,14.00
2022-09-10T11:12:38.817Z,14.00
2022-09-10T11:15:33.377Z,14.00
2022-09-10T11:18:21.731Z,14.10
2022-09-10T11:21:22.005Z,14.20
2022-09-10T11:24:07.431Z,14.30
2022-09-10T11:26:58.244Z,14.20
2022-09-10T11:29:47.305Z,14.20
2022-09-10T11:32:39.382Z,14.30
2022-09-10T11:35:27.226Z,14.20
2022-09-10T11:38:30.192Z,14.20
2022-09-10T11:41:22.374Z,14.10
2022-09-10T11:44:15.299Z,14.10
2022-09-10T11:47:04.016Z,14.00
2022-09-10T11:49:58.122Z,14.00
2022-09-10T11:52:43.397Z,13.90
2022-09-10T11:56:05.134Z,13.90
2022-09-10T11:58:59.212Z,13.90
2022-09-10T12:01:49.297Z,13.90
2022-09-10T12:04:54.759Z,13.90
2022-09-10T12:07:42.758Z,13.90
2022-09-10T12:10:33.694Z,13.90
2022-09-10T12:13:18.896Z,13.80
2022-09-10T12:16:09.156Z,14.00
2022-09-10T12:18:55.759Z,14.00
2022-09-10T12:21:48.755Z,14.00
2022-09-10T12:24:38.098Z,14.10
2022-09-10T12:27:43.772Z,14.10
2022-09-10T12:30:33.314Z,14.20
2022-09-10T12:33:38.824Z,14.20
2022-09-10T12:36:27.156Z,14.20
2022-09-10T12:39:25.224Z,14.20
2022-09-10T12:42:27.329Z,14.20
2022-09-10T12:45:12.726Z,14.10
2022-09-10T12:47:57.911Z,14.10
2022-09-10T12:50:50.813Z,14.00
2022-09-10T12:53:47.889Z,13.90
2022-09-10T12:56:50.888Z,14.00
2022-09-10T12:59:45.747Z,14.00
2022-09-10T13:02:35.120Z,14.10
2022-09-10T13:05:23.408Z,14.10
2022-09-10T13:08:11.510Z,14.10
2022-09-10T13:10:59.833Z,14.10
2022-09-10T13:13:54.681Z,14.10
2022-09-10T13:16:40.849Z,14.10
2022-09-10T13:19:25.908Z,14.10
2022-09-10T13:22:30.139Z,14.00
2022-09-10T13:25:36.742Z,14.00
2022-09-10T13:28:31.222Z,13.90
2022-09-10T13:31:18.440Z,13.90
2022-09-10T13:34:16.062Z,13.80
2022-09-10T13:37:20.166Z,13.80
2022-09-10T13:40:26.782Z,13.80
2022-09-10T13:43:27.990Z,13.80
2022-09-10T13:46:20.207Z,13.70
2022-09-10T13:49:12.050Z,13.70
2022-09-10T13:51:58.889Z,13.70
2022-09-10T13:54:53.287Z,13.70
2022-09-10T13:57:43.687Z,13.60
2022-09-10T14:00:52.408Z,13.60
2022-09-10T14:03:38.279Z,13.70
2022-09-10T14:06:24.008Z,13.60
2022-09-10T14:09:10.185Z,13.60
2022-09-10T14:11:56.992Z,13.60
2022-09-10T14:14:44.587Z,13.50
2022-09-10T14:17:35.466Z,13.50
2022-09-10T14:20:24.147Z,13.50
2022-09-10T14:23:16.198Z,13.50
2022-09-10T14:26:15.595Z,13.50
2022-09-10T14:29:22.642Z,13.50
2022-09-10T14:32:26.775Z,13.50
2022-09-10T14:35:30.974Z,13.50
2022-09-10T14:38:24.932Z,13.40
2022-09-10T14:41:21.734Z,13.40
2022-09-10T14:44:27.438Z,13.40
2022-09-10T14:47:14.937Z,13.50
2022-09-10T14:50:19.191Z,13.50
2022-09-10T14:53:04.275Z,13.40
2022-09-10T14:55:49.433Z,13.50
2022-09-10T14:58:34.643Z,13.40
2022-09-10T15:01:20.855Z,13.40
2022-09-10T15:04:06.332Z,13.40
2022-09-10T15:06:58.755Z,13.40
2022-09-10T15:09:44.225Z,13.40
2022-09-10T15:12:30.977Z,13.30
2022-09-10T15:15:17.559Z,13.30
2022-09-10T15:18:03.211Z,15.20
2022-09-10T15:20:50.106Z,13.40
2022-09-10T15:23:35.935Z,13.40
2022-09-10T15:26:21.219Z,13.40
2022-09-10T15:29:06.211Z,13.40
2022-09-10T15:31:51.769Z,13.40
2022-09-10T15:34:37.672Z,13.40
2022-09-10T15:37:23.127Z,13.40
2022-09-10T15:40:10.078Z,13.40
2022-09-10T15:42:55.589Z,13.40
2022-09-10T15:45:40.595Z,13.30
2022-09-10T15:48:25.855Z,13.30
2022-09-10T15:51:14.889Z,13.30
2022-09-10T15:54:04.822Z,13.30
2022-09-10T15:56:51.259Z,13.30
2022-09-10T15:59:36.536Z,13.40
2022-09-10T16:02:22.004Z,13.30
2022-09-10T16:05:07.717Z,13.40
2022-09-10T16:07:52.941Z,13.30
2022-09-10T16:10:41.094Z,13.30
2022-09-10T16:13:28.440Z,13.30
2022-09-10T16:16:18.535Z,13.30
2022-09-10T16:19:04.363Z,13.30
2022-09-10T16:21:52.653Z,13.30
2022-09-10T16:24:37.892Z,13.30
2022-09-10T16:27:24.087Z,13.30
2022-09-10T16:30:09.787Z,13.30
2022-09-10T16:32:55.497Z,13.30
2022-09-10T16:35:40.997Z,13.30
2022-09-10T16:38:26.569Z,13.30
2022-09-10T16:41:13.180Z,13.30
2022-09-10T16:44:00.624Z,13.30
2022-09-10T16:46:47.161Z,13.30
2022-09-10T16:49:32.861Z,13.30
2022-09-10T16:52:18.279Z,13.30
2022-09-10T16:55:04.596Z,13.60
2022-09-10T16:57:49.919Z,13.30
2022-09-10T17:00:36.570Z,13.10
2022-09-10T17:03:22.896Z,13.20
2022-09-10T17:06:13.187Z,13.20
2022-09-10T17:08:59.059Z,13.20
2022-09-10T17:11:44.453Z,13.10
2022-09-10T17:14:30.377Z,13.10
2022-09-10T17:17:15.587Z,13.10
2022-09-10T17:20:01.236Z,13.10
2022-09-10T17:22:46.718Z,13.10
2022-09-10T17:25:32.399Z,13.00
2022-09-10T17:28:17.670Z,13.10
2022-09-10T17:31:03.346Z,13.10
2022-09-10T17:33:48.529Z,13.10
2022-09-10T17:36:34.878Z,13.00
2022-09-10T17:39:20.018Z,13.10
2022-09-10T17:42:05.232Z,13.00
2022-09-10T17:44:50.664Z,13.00
2022-09-10T17:47:36.116Z,13.00
2022-09-10T17:50:21.608Z,13.00
2022-09-10T17:53:07.294Z,12.90
2022-09-10T17:55:52.845Z,13.00
2022-09-10T17:58:38.405Z,12.90
2022-09-10T18:01:24.937Z,12.90
2022-09-10T18:04:12.776Z,12.90
2022-09-10T18:06:58.013Z,12.90
2022-09-10T18:09:43.152Z,12.90
2022-09-10T18:12:28.392Z,12.90
2022-09-10T18:15:13.484Z,13.00
2022-09-10T18:17:59.373Z,12.90
2022-09-10T18:20:44.798Z,13.00
2022-09-10T18:23:29.941Z,13.00
2022-09-10T18:26:16.013Z,13.00
2022-09-10T18:29:02.834Z,13.00
2022-09-10T18:31:49.350Z,13.00
2022-09-10T18:34:37.554Z,13.00
2022-09-10T18:37:23.002Z,13.00
2022-09-10T18:40:09.407Z,13.00
2022-09-10T18:42:55.061Z,13.00
2022-09-10T18:45:40.039Z,13.00
2022-09-10T18:48:25.217Z,13.00
2022-09-10T18:51:11.709Z,13.00
2022-09-10T18:53:58.363Z,13.00
2022-09-10T18:56:44.974Z,13.00
2022-09-10T18:59:30.636Z,13.00
2022-09-10T19:02:17.901Z,12.90
2022-09-10T19:05:12.371Z,12.90
2022-09-10T19:07:58.916Z,12.90
2022-09-10T19:10:44.478Z,12.90
2022-09-10T19:13:30.472Z,12.90
2022-09-10T19:16:16.443Z,12.90
2022-09-10T19:19:03.391Z,12.90
2022-09-10T19:21:49.869Z,12.90
2022-09-10T19:24:54.180Z,12.90
2022-09-10T19:27:41.047Z,12.90
2022-09-10T19:30:26.111Z,12.80
2022-09-10T19:33:11.336Z,12.90
2022-09-10T19:35:56.811Z,12.80
2022-09-10T19:38:42.317Z,12.90
2022-09-10T19:41:27.786Z,12.80
2022-09-10T19:44:14.243Z,12.80
2022-09-10T19:46:59.731Z,12.80
2022-09-10T19:49:46.567Z,12.80
2022-09-10T19:52:32.678Z,12.80
2022-09-10T19:55:18.404Z,12.80
2022-09-10T19:58:03.531Z,12.80
2022-09-10T20:00:48.630Z,12.80
2022-09-10T20:03:35.138Z,12.70
2022-09-10T20:06:21.281Z,12.80
2022-09-10T20:09:07.174Z,12.80
2022-09-10T20:11:52.113Z,12.70
2022-09-10T20:14:38.162Z,12.70
2022-09-10T20:17:23.314Z,12.70
2022-09-10T20:20:08.444Z,12.70
2022-09-10T20:23:00.269Z,12.70
2022-09-10T20:25:45.346Z,12.70
2022-09-10T20:28:30.385Z,12.70
2022-09-10T20:31:16.483Z,12.70
2022-09-10T20:34:03.696Z,12.70
2022-09-10T20:36:53.339Z,12.70
2022-09-10T20:39:42.182Z,12.70
2022-09-10T20:42:28.088Z,12.70
2022-09-10T20:45:13.473Z,12.70
2022-09-10T20:48:00.335Z,12.70
2022-09-10T20:50:55.645Z,12.70
2022-09-10T20:53:41.118Z,12.60
2022-09-10T20:56:26.668Z,12.70
2022-09-10T20:59:12.673Z,12.60
2022-09-10T21:01:58.131Z,12.60
2022-09-10T21:04:43.681Z,12.60
2022-09-10T21:07:28.791Z,12.60
2022-09-10T21:10:14.294Z,12.60
2022-09-10T21:13:02.126Z,12.60
2022-09-10T21:15:47.540Z,12.60
2022-09-10T21:18:33.214Z,12.60
2022-09-10T21:21:20.921Z,12.60
2022-09-10T21:24:32.595Z,12.60
2022-09-10T21:27:17.737Z,12.60
2022-09-10T21:30:04.072Z,12.60
2022-09-10T21:32:49.985Z,12.60
2022-09-10T21:35:35.912Z,12.60
2022-09-10T21:38:21.837Z,12.60
2022-09-10T21:41:08.441Z,12.60
2022-09-10T21:43:53.695Z,12.60
2022-09-10T21:46:39.648Z,12.60
2022-09-10T21:49:25.257Z,12.60
2022-09-10T21:52:10.416Z,12.70
2022-09-10T21:54:55.706Z,12.60
2022-09-10T21:57:41.069Z,12.60
2022-09-10T22:00:27.995Z,12.60
2022-09-10T22:03:12.931Z,12.60
2022-09-10T22:06:11.782Z,12.60
2022-09-10T22:09:00.840Z,12.60
2022-09-10T22:11:47.296Z,12.60
2022-09-10T22:14:32.699Z,12.50
2022-09-10T22:17:19.313Z,12.50
2022-09-10T22:20:05.155Z,12.50
2022-09-10T22:22:50.608Z,12.50
2022-09-10T22:25:35.680Z,12.50
2022-09-10T22:28:21.372Z,12.50
2022-09-10T22:31:07.094Z,12.50
2022-09-10T22:33:53.196Z,12.40
2022-09-10T22:36:39.355Z,12.40
2022-09-10T22:39:24.585Z,12.40
2022-09-10T22:42:10.801Z,12.40
2022-09-10T22:44:56.800Z,12.40
2022-09-10T22:47:42.140Z,12.30
2022-09-10T22:50:27.440Z,12.30
2022-09-10T22:53:14.525Z,12.30
2022-09-10T22:56:00.307Z,12.30
2022-09-10T22:58:45.928Z,12.30
2022-09-10T23:01:33.593Z,12.30
2022-09-10T23:04:19.244Z,12.30
2022-09-10T23:07:04.365Z,12.20
2022-09-10T23:09:49.516Z,12.30
2022-09-10T23:12:34.598Z,12.30
2022-09-10T23:15:19.723Z,12.30
2022-09-10T23:18:04.913Z,12.20
2022-09-10T23:20:50.819Z,12.20
2022-09-10T23:23:36.243Z,12.20
2022-09-10T23:26:21.873Z,12.20
2022-09-10T23:29:08.046Z,12.20
2022-09-10T23:31:54.002Z,12.20
2022-09-10T23:34:38.986Z,12.20
2022-09-10T23:37:25.538Z,12.20
2022-09-10T23:40:12.014Z,12.20
2022-09-10T23:42:57.483Z,12.20
2022-09-10T23:45:42.682Z,12.20
2022-09-10T23:48:28.289Z,12.20
2022-09-10T23:51:14.390Z,12.20
2022-09-10T23:53:59.603Z,12.20
2022-09-10T23:56:45.022Z,12.20
2022-09-10T23:59:29.991Z,12.10
